createdAt,value
2023-01-19T00:00:35.214Z,97925.34
2023-01-19T00:03:04.316Z,97942.16
2023-01-19T00:05:31.232Z,97941.50
2023-01-19T00:08:14.470Z,97941.50
2023-01-19T00:10:44.098Z,97959.34
2023-01-19T00:13:10.940Z,97944.28
2023-01-19T00:15:37.816Z,97960.34
2023-01-19T00:18:04.739Z,97963.06
2023-01-19T00:20:32.818Z,97956.19
2023-01-19T00:23:00.324Z,97964.81
2023-01-19T00:25:27.711Z,97957.34
2023-01-19T00:27:55.229Z,97957.34
2023-01-19T00:30:24.380Z,97959.75
2023-01-19T00:32:51.530Z,97939.03
2023-01-19T00:35:18.390Z,97956.44
2023-01-19T00:37:46.023Z,97963.41
2023-01-19T00:40:14.133Z,97975.28
2023-01-19T00:42:41.188Z,97974.53
2023-01-19T00:45:10.938Z,97982.16
2023-01-19T00:47:39.390Z,97975.38
2023-01-19T00:50:08.222Z,97982.16
2023-01-19T00:52:34.983Z,97979.69
2023-01-19T00:55:01.824Z,97980.56
2023-01-19T00:57:29.564Z,97976.38
2023-01-19T00:59:56.626Z,97954.59
2023-01-19T01:02:23.901Z,97973.25
2023-01-19T01:04:54.909Z,97955.38
2023-01-19T01:07:23.426Z,97976.91
2023-01-19T01:09:51.092Z,97979.25
2023-01-19T01:12:17.899Z,97962.59
2023-01-19T01:14:44.759Z,97969.31
2023-01-19T01:17:14.178Z,97981.00
2023-01-19T01:19:41.788Z,97982.81
2023-01-19T01:22:09.854Z,97987.88
2023-01-19T01:24:36.710Z,97952.75
2023-01-19T01:27:03.639Z,97990.56
2023-01-19T01:29:30.427Z,97977.06
2023-01-19T01:31:57.325Z,97972.91
2023-01-19T01:34:24.178Z,97980.47
2023-01-19T01:36:51.262Z,97976.34
2023-01-19T01:39:18.149Z,97984.72
2023-01-19T01:41:44.949Z,97973.81
2023-01-19T01:44:49.905Z,97983.75
2023-01-19T01:47:39.375Z,97983.81
2023-01-19T01:50:18.192Z,97981.50
2023-01-19T01:53:05.979Z,97964.69
2023-01-19T01:55:41.227Z,97998.41
2023-01-19T01:58:10.261Z,97995.94
2023-01-19T02:00:57.021Z,97999.38
2023-01-19T02:03:25.674Z,97997.66
2023-01-19T02:05:57.517Z,97992.56
2023-01-19T02:08:48.834Z,98000.91
2023-01-19T02:11:35.345Z,97980.94
2023-01-19T02:14:05.813Z,97996.81
2023-01-19T02:16:33.579Z,97985.28
2023-01-19T02:19:01.212Z,98000.25
2023-01-19T02:21:44.256Z,97995.25
2023-01-19T02:24:11.624Z,97968.56
2023-01-19T02:26:43.970Z,98002.94
2023-01-19T02:29:14.979Z,98000.41
2023-01-19T02:31:42.250Z,98001.19
2023-01-19T02:34:15.346Z,97971.97
2023-01-19T02:37:06.714Z,97987.84
2023-01-19T02:39:45.829Z,97997.00
2023-01-19T02:42:30.872Z,97982.81
2023-01-19T02:44:58.156Z,97997.09
2023-01-19T02:47:25.002Z,98003.88
2023-01-19T02:49:58.349Z,98000.53
2023-01-19T02:52:27.006Z,98012.41
2023-01-19T02:55:19.779Z,97995.66
2023-01-19T02:57:49.649Z,98013.47
2023-01-19T03:00:38.387Z,98010.16
2023-01-19T03:03:40.306Z,98015.16
2023-01-19T03:06:16.698Z,98013.47
2023-01-19T03:09:09.076Z,98013.63
2023-01-19T03:11:41.980Z,98017.88
2023-01-19T03:14:15.769Z,98007.75
2023-01-19T03:16:55.565Z,97987.69
2023-01-19T03:19:27.831Z,98012.84
2023-01-19T03:22:22.483Z,97990.50
2023-01-19T03:24:53.644Z,98016.47
2023-01-19T03:27:26.719Z,98011.34
2023-01-19T03:29:59.335Z,98017.41
2023-01-19T03:32:32.527Z,98017.47
2023-01-19T03:35:03.048Z,98022.69
2023-01-19T03:37:31.741Z,98026.94
2023-01-19T03:39:58.707Z,98022.78
2023-01-19T03:42:27.197Z,98022.91
2023-01-19T03:44:56.446Z,98031.22
2023-01-19T03:47:24.113Z,98018.84
2023-01-19T03:49:53.356Z,98037.31
2023-01-19T03:52:29.743Z,98027.16
2023-01-19T03:54:56.713Z,98033.22
2023-01-19T03:57:23.662Z,98017.22
2023-01-19T03:59:50.519Z,98028.13
2023-01-19T04:02:17.471Z,98024.03
2023-01-19T04:04:44.391Z,98034.84
2023-01-19T04:07:11.552Z,98029.78
2023-01-19T04:09:38.425Z,98029.88
2023-01-19T04:12:05.332Z,98022.31
2023-01-19T04:14:32.272Z,97999.66
2023-01-19T04:16:59.072Z,98019.78
2023-01-19T04:19:25.877Z,98033.25
2023-01-19T04:21:52.726Z,98030.72
2023-01-19T04:24:19.624Z,98039.25
2023-01-19T04:26:46.424Z,98046.09
2023-01-19T04:29:14.291Z,98043.47
2023-01-19T04:31:41.189Z,98044.22
2023-01-19T04:34:07.971Z,98049.31
2023-01-19T04:36:35.278Z,98050.13
2023-01-19T04:39:02.129Z,98031.00
2023-01-19T04:41:30.312Z,98030.88
2023-01-19T04:43:57.904Z,98028.41
2023-01-19T04:46:25.038Z,98017.53
2023-01-19T04:48:51.900Z,98045.88
2023-01-19T04:51:18.757Z,98047.72
2023-01-19T04:53:45.901Z,98046.81
2023-01-19T04:56:12.745Z,98051.91
2023-01-19T04:58:39.982Z,98042.78
2023-01-19T05:01:10.094Z,98058.03
2023-01-19T05:03:36.978Z,98027.81
2023-01-19T05:06:03.911Z,98052.94
2023-01-19T05:08:30.974Z,98053.75
2023-01-19T05:10:57.916Z,98031.09
2023-01-19T05:13:24.799Z,98053.00
2023-01-19T05:15:51.605Z,98048.69
2023-01-19T05:18:18.570Z,98052.97
2023-01-19T05:20:45.428Z,98045.38
2023-01-19T05:23:12.276Z,98014.50
2023-01-19T05:25:39.139Z,98059.63
2023-01-19T05:28:06.077Z,98062.28
2023-01-19T05:30:33.019Z,98071.56
2023-01-19T05:33:00.223Z,98069.03
2023-01-19T05:35:35.662Z,98075.66
2023-01-19T05:38:03.255Z,98082.41
2023-01-19T05:40:30.068Z,98070.47
2023-01-19T05:43:00.739Z,98062.03
2023-01-19T05:45:30.769Z,98075.50
2023-01-19T05:47:57.809Z,98072.06
2023-01-19T05:50:25.282Z,98038.50
2023-01-19T05:52:55.055Z,98069.47
2023-01-19T05:55:22.503Z,98060.16
2023-01-19T05:57:49.336Z,98041.75
2023-01-19T06:00:16.661Z,98080.28
2023-01-19T06:02:43.682Z,98073.53
2023-01-19T06:05:10.815Z,98083.56
2023-01-19T06:07:37.671Z,98090.28
2023-01-19T06:10:05.121Z,98085.19
2023-01-19T06:12:32.497Z,98070.19
2023-01-19T06:14:59.728Z,98069.25
2023-01-19T06:17:26.519Z,98094.53
2023-01-19T06:19:53.358Z,98096.53
2023-01-19T06:22:20.224Z,98098.19
2023-01-19T06:24:47.149Z,98098.19
2023-01-19T06:27:13.986Z,98095.53
2023-01-19T06:29:40.996Z,98085.34
2023-01-19T06:32:08.062Z,98077.81
2023-01-19T06:34:34.934Z,98103.03
2023-01-19T06:37:01.720Z,98105.56
2023-01-19T06:39:28.541Z,98108.97
2023-01-19T06:41:55.343Z,98104.72
2023-01-19T06:44:22.208Z,98098.09
2023-01-19T06:46:49.127Z,98083.06
2023-01-19T06:49:16.010Z,98103.31
2023-01-19T06:51:42.856Z,98065.53
2023-01-19T06:54:09.708Z,98093.16
2023-01-19T06:56:36.535Z,98102.59
2023-01-19T06:59:03.352Z,98090.09
2023-01-19T07:01:30.300Z,98112.66
2023-01-19T07:03:57.249Z,98111.94
2023-01-19T07:06:24.232Z,98114.66
2023-01-19T07:08:51.062Z,98125.50
2023-01-19T07:11:26.140Z,98095.28
2023-01-19T07:13:57.667Z,98110.56
2023-01-19T07:16:24.688Z,98122.25
2023-01-19T07:18:51.558Z,98112.16
2023-01-19T07:21:19.131Z,98123.13
2023-01-19T07:23:49.796Z,98127.25
2023-01-19T07:26:19.795Z,98133.06
2023-01-19T07:28:48.222Z,98107.06
2023-01-19T07:31:15.800Z,98126.25
2023-01-19T07:33:42.902Z,98138.03
2023-01-19T07:36:10.330Z,98117.88
2023-01-19T07:38:37.100Z,98140.59
2023-01-19T07:41:06.915Z,98147.34
2023-01-19T07:43:34.616Z,98151.53
2023-01-19T07:46:03.632Z,98162.47
2023-01-19T07:48:30.602Z,98160.75
2023-01-19T07:51:05.198Z,98161.59
2023-01-19T07:53:32.695Z,98149.59
2023-01-19T07:55:59.566Z,98146.28
2023-01-19T07:58:26.889Z,98140.34
2023-01-19T08:00:53.868Z,98150.47
2023-01-19T08:03:20.735Z,98158.97
2023-01-19T08:05:51.962Z,98154.59
2023-01-19T08:08:19.745Z,98138.72
2023-01-19T08:10:50.813Z,98165.47
2023-01-19T08:13:18.479Z,98151.34
2023-01-19T08:15:45.486Z,98164.63
2023-01-19T08:18:14.686Z,98151.28
2023-01-19T08:20:41.662Z,98155.41
2023-01-19T08:23:08.410Z,98167.09
2023-01-19T08:25:39.466Z,98166.19
2023-01-19T08:28:07.924Z,98173.72
2023-01-19T08:30:35.333Z,98178.81
2023-01-19T08:33:05.114Z,98175.31
2023-01-19T08:35:37.495Z,98133.34
2023-01-19T08:38:06.104Z,98177.00
2023-01-19T08:40:37.659Z,98181.22
2023-01-19T08:43:08.211Z,98177.59
2023-01-19T08:45:37.305Z,98160.78
2023-01-19T08:48:06.252Z,98169.38
2023-01-19T08:50:34.305Z,98178.81
2023-01-19T08:53:03.694Z,98185.53
2023-01-19T08:55:30.812Z,98162.88
2023-01-19T08:57:59.910Z,98160.25
2023-01-19T09:00:27.597Z,98181.16
2023-01-19T09:02:54.853Z,98188.56
2023-01-19T09:05:21.689Z,98191.06
2023-01-19T09:07:48.706Z,98181.16
2023-01-19T09:10:16.765Z,98185.25
2023-01-19T09:12:45.112Z,98190.25
2023-01-19T09:15:13.932Z,98187.50
2023-01-19T09:17:42.263Z,98194.28
2023-01-19T09:20:10.103Z,98191.91
2023-01-19T09:22:37.104Z,98187.69
2023-01-19T09:25:04.219Z,98187.63
2023-01-19T09:27:31.204Z,98185.88
2023-01-19T09:29:57.995Z,98211.94
2023-01-19T09:32:24.843Z,98204.06
2023-01-19T09:34:52.420Z,98203.91
2023-01-19T09:37:19.421Z,98209.75
2023-01-19T09:39:46.350Z,98206.31
2023-01-19T09:42:42.551Z,98208.78
2023-01-19T09:45:20.071Z,98191.69
2023-01-19T09:47:49.204Z,98210.84
2023-01-19T09:50:39.403Z,98201.41
2023-01-19T09:53:17.037Z,98213.19
2023-01-19T09:55:43.888Z,98204.75
2023-01-19T09:58:20.923Z,98207.94
2023-01-19T10:00:55.377Z,98208.75
2023-01-19T10:03:23.975Z,98209.59
2023-01-19T10:06:04.803Z,98187.16
2023-01-19T10:08:47.350Z,98200.25
2023-01-19T10:11:42.089Z,98201.03
2023-01-19T10:14:33.067Z,98194.88
2023-01-19T10:17:21.395Z,98202.72
2023-01-19T10:19:53.946Z,98171.91
2023-01-19T10:22:27.166Z,98186.91
2023-01-19T10:24:58.623Z,98179.81
2023-01-19T10:27:31.209Z,98197.78
2023-01-19T10:30:00.718Z,98167.53
2023-01-19T10:32:32.718Z,98185.03
2023-01-19T10:34:59.992Z,98106.59
2023-01-19T10:37:37.172Z,98174.19
2023-01-19T10:40:09.937Z,98185.75
2023-01-19T10:42:39.963Z,98182.47
2023-01-19T10:45:26.184Z,98185.47
2023-01-19T10:47:54.819Z,98182.84
2023-01-19T10:50:32.762Z,98188.41
2023-01-19T10:53:03.882Z,98186.13
2023-01-19T10:55:38.159Z,98179.16
2023-01-19T10:58:07.170Z,98178.91
2023-01-19T11:00:39.753Z,98180.41
2023-01-19T11:03:31.213Z,98169.97
2023-01-19T11:06:16.091Z,98169.09
2023-01-19T11:08:45.271Z,98169.91
2023-01-19T11:11:12.889Z,98175.63
2023-01-19T11:13:40.790Z,98149.44
2023-01-19T11:16:27.989Z,98171.19
2023-01-19T11:18:56.966Z,98173.59
2023-01-19T11:21:27.058Z,98165.94
2023-01-19T11:24:00.811Z,98168.47
2023-01-19T11:26:43.878Z,98173.28
2023-01-19T11:29:24.218Z,98164.06
2023-01-19T11:31:52.796Z,98150.63
2023-01-19T11:34:35.117Z,98188.31
2023-01-19T11:37:18.515Z,98170.16
2023-01-19T11:39:50.083Z,98169.16
2023-01-19T11:42:18.119Z,98144.06
2023-01-19T11:45:05.184Z,98154.81
2023-01-19T11:47:52.550Z,98157.56
2023-01-19T11:50:31.995Z,98151.66
2023-01-19T11:53:06.610Z,98156.63
2023-01-19T11:55:51.887Z,98151.84
2023-01-19T11:58:19.948Z,98155.94
2023-01-19T12:00:51.787Z,98147.63
2023-01-19T12:03:43.226Z,98120.59
2023-01-19T12:06:19.982Z,98139.06
2023-01-19T12:08:57.958Z,98149.94
2023-01-19T12:11:32.266Z,98120.47
2023-01-19T12:14:00.291Z,98143.63
2023-01-19T12:16:31.240Z,98146.50
2023-01-19T12:19:04.304Z,98139.66
2023-01-19T12:21:31.212Z,98127.81
2023-01-19T12:24:18.653Z,98138.50
2023-01-19T12:27:00.975Z,98123.47
2023-01-19T12:29:34.187Z,98139.16
2023-01-19T12:32:16.662Z,98141.41
2023-01-19T12:34:49.062Z,98121.22
2023-01-19T12:37:40.659Z,98133.16
2023-01-19T12:40:31.256Z,98125.38
2023-01-19T12:43:05.235Z,98135.50
2023-01-19T12:45:39.783Z,98130.31
2023-01-19T12:48:25.162Z,98139.34
2023-01-19T12:50:51.909Z,98133.44
2023-01-19T12:53:22.591Z,98145.34
2023-01-19T12:56:00.025Z,98128.50
2023-01-19T12:58:27.376Z,98129.16
2023-01-19T13:01:21.435Z,98145.84
2023-01-19T13:04:24.479Z,98135.78
2023-01-19T13:06:54.327Z,98141.59
2023-01-19T13:09:38.476Z,98143.28
2023-01-19T13:12:25.528Z,98139.06
2023-01-19T13:15:29.155Z,98132.13
2023-01-19T13:17:56.739Z,98111.28
2023-01-19T13:20:34.973Z,98132.97
2023-01-19T13:23:24.187Z,98126.34
2023-01-19T13:26:03.079Z,98139.63
2023-01-19T13:28:45.906Z,98149.81
2023-01-19T13:31:13.590Z,98141.22
2023-01-19T13:33:52.629Z,98139.63
2023-01-19T13:36:33.576Z,98143.16
2023-01-19T13:39:05.667Z,98156.78
2023-01-19T13:41:37.771Z,98148.69
2023-01-19T13:44:14.199Z,98150.16
2023-01-19T13:46:41.376Z,98142.53
2023-01-19T13:49:21.395Z,98147.25
2023-01-19T13:52:14.884Z,98154.75
2023-01-19T13:54:49.955Z,98158.31
2023-01-19T13:57:41.218Z,98162.38
2023-01-19T14:00:14.361Z,98164.81
2023-01-19T14:02:58.652Z,98167.31
2023-01-19T14:05:29.143Z,98132.13
2023-01-19T14:08:12.294Z,98166.38
2023-01-19T14:10:46.423Z,98166.47
2023-01-19T14:13:17.797Z,98169.44
2023-01-19T14:15:47.822Z,98173.66
2023-01-19T14:18:18.304Z,98161.47
2023-01-19T14:21:01.047Z,98143.00
2023-01-19T14:24:06.927Z,98160.38
2023-01-19T14:26:47.828Z,98140.97
2023-01-19T14:29:33.245Z,98161.13
2023-01-19T14:32:14.934Z,98168.06
2023-01-19T14:35:04.105Z,98161.25
2023-01-19T14:37:37.399Z,98150.25
2023-01-19T14:40:24.436Z,98162.94
2023-01-19T14:42:55.685Z,98162.03
2023-01-19T14:45:28.375Z,98165.50
2023-01-19T14:48:03.012Z,98152.81
2023-01-19T14:50:37.510Z,98157.81
2023-01-19T14:53:21.121Z,98151.13
2023-01-19T14:55:51.308Z,98164.66
2023-01-19T14:58:21.638Z,98158.63
2023-01-19T15:00:49.707Z,98145.38
2023-01-19T15:03:16.905Z,98159.53
2023-01-19T15:05:46.670Z,98137.63
2023-01-19T15:08:25.612Z,98165.38
2023-01-19T15:10:52.408Z,98164.44
2023-01-19T15:13:22.350Z,98143.31
2023-01-19T15:15:50.245Z,98154.91
2023-01-19T15:18:26.452Z,98134.16
2023-01-19T15:21:02.584Z,98160.94
2023-01-19T15:23:31.054Z,98137.56
2023-01-19T15:26:04.175Z,98151.63
2023-01-19T15:28:31.769Z,98160.09
2023-01-19T15:31:00.046Z,98160.94
2023-01-19T15:33:32.667Z,98157.47
2023-01-19T15:35:59.470Z,98162.59
2023-01-19T15:38:26.576Z,98146.59
2023-01-19T15:40:53.429Z,98149.13
2023-01-19T15:43:21.294Z,98160.81
2023-01-19T15:46:02.458Z,98138.06
2023-01-19T15:48:29.386Z,98155.75
2023-01-19T15:50:56.271Z,98163.34
2023-01-19T15:53:24.090Z,98123.19
2023-01-19T15:55:55.261Z,98166.25
2023-01-19T15:58:23.428Z,98157.31
2023-01-19T16:00:56.078Z,98145.41
2023-01-19T16:03:26.040Z,98132.50
2023-01-19T16:05:52.898Z,98152.56
2023-01-19T16:08:21.983Z,98155.09
2023-01-19T16:10:48.810Z,98150.19
2023-01-19T16:13:15.563Z,98140.03
2023-01-19T16:15:42.497Z,98154.16
2023-01-19T16:18:09.412Z,98158.31
2023-01-19T16:20:36.300Z,98144.16
2023-01-19T16:23:14.612Z,98156.72
2023-01-19T16:25:42.100Z,98160.56
2023-01-19T16:28:09.008Z,98157.81
2023-01-19T16:30:35.867Z,98157.75
2023-01-19T16:33:02.725Z,98159.28
2023-01-19T16:35:29.505Z,98153.38
2023-01-19T16:37:56.293Z,98161.78
2023-01-19T16:40:23.151Z,98151.13
2023-01-19T16:42:50.587Z,98156.19
2023-01-19T16:45:17.445Z,98158.63
2023-01-19T16:47:46.746Z,98153.84
2023-01-19T16:50:13.666Z,98162.03
2023-01-19T16:52:40.563Z,98160.44
2023-01-19T16:55:09.553Z,98166.38
2023-01-19T16:57:39.872Z,98157.03
2023-01-19T17:00:10.217Z,98148.84
2023-01-19T17:02:37.520Z,98132.81
2023-01-19T17:05:04.871Z,98139.69
2023-01-19T17:07:31.736Z,98161.34
2023-01-19T17:09:58.635Z,98156.47
2023-01-19T17:12:25.417Z,98161.56
2023-01-19T17:14:52.259Z,98160.50
2023-01-19T17:17:19.116Z,98128.72
2023-01-19T17:19:46.004Z,98158.97
2023-01-19T17:22:14.202Z,98164.22
2023-01-19T17:24:42.402Z,98169.25
2023-01-19T17:27:10.121Z,98153.06
2023-01-19T17:29:37.003Z,98158.53
2023-01-19T17:32:04.245Z,98165.69
2023-01-19T17:34:31.135Z,98167.19
2023-01-19T17:37:02.865Z,98171.28
2023-01-19T17:39:30.281Z,98169.56
2023-01-19T17:41:57.459Z,98133.44
2023-01-19T17:44:24.676Z,98148.59
2023-01-19T17:46:51.417Z,98169.50
2023-01-19T17:49:18.197Z,98172.97
2023-01-19T17:51:44.973Z,98178.09
2023-01-19T17:54:14.460Z,98158.75
2023-01-19T17:56:41.658Z,98177.25
2023-01-19T17:59:08.822Z,98174.63
2023-01-19T18:01:40.704Z,98171.28
2023-01-19T18:04:09.099Z,98161.50
2023-01-19T18:06:37.838Z,98161.59
2023-01-19T18:09:07.744Z,98183.34
2023-01-19T18:11:35.119Z,98168.31
2023-01-19T18:14:02.136Z,98184.34
2023-01-19T18:16:34.263Z,98181.97
2023-01-19T18:19:01.760Z,98188.72
2023-01-19T18:21:31.229Z,98201.56
2023-01-19T18:24:04.746Z,98190.44
2023-01-19T18:26:37.573Z,98187.88
2023-01-19T18:29:04.927Z,98192.16
2023-01-19T18:31:32.949Z,98170.31
2023-01-19T18:33:59.907Z,98133.56
2023-01-19T18:36:26.827Z,98186.31
2023-01-19T18:38:53.827Z,98161.31
2023-01-19T18:41:21.697Z,98182.13
2023-01-19T18:43:49.239Z,98169.69
2023-01-19T18:46:16.832Z,98188.06
2023-01-19T18:48:43.978Z,98186.31
2023-01-19T18:51:15.848Z,98196.53
2023-01-19T18:53:44.233Z,98182.13
2023-01-19T18:56:14.136Z,98177.13
2023-01-19T18:58:41.773Z,98195.84
2023-01-19T19:01:30.792Z,98186.41
2023-01-19T19:03:59.470Z,98187.25
2023-01-19T19:06:27.114Z,98171.53
2023-01-19T19:08:56.483Z,98192.41
2023-01-19T19:11:24.742Z,98180.16
2023-01-19T19:14:02.733Z,98185.03
2023-01-19T19:16:30.486Z,98173.03
2023-01-19T19:18:59.042Z,98183.94
2023-01-19T19:21:26.086Z,98180.53
2023-01-19T19:23:57.818Z,98187.38
2023-01-19T19:26:27.865Z,98169.84
2023-01-19T19:28:54.792Z,98189.13
2023-01-19T19:31:23.460Z,98186.63
2023-01-19T19:33:51.109Z,98165.44
2023-01-19T19:36:20.040Z,98186.56
2023-01-19T19:38:48.196Z,98180.59
2023-01-19T19:41:22.319Z,98178.88
2023-01-19T19:43:49.488Z,98181.78
2023-01-19T19:46:19.911Z,98186.19
2023-01-19T19:48:48.638Z,98180.00
2023-01-19T19:51:25.657Z,98167.19
2023-01-19T19:53:54.595Z,98165.22
2023-01-19T19:56:24.173Z,98196.28
2023-01-19T19:58:54.074Z,98180.31
2023-01-19T20:01:32.652Z,98180.94
2023-01-19T20:04:09.098Z,98182.69
2023-01-19T20:06:39.745Z,98173.47
2023-01-19T20:09:10.265Z,98201.22
2023-01-19T20:11:37.256Z,98180.31
2023-01-19T20:14:09.870Z,98208.75
2023-01-19T20:16:37.242Z,98203.75
2023-01-19T20:19:05.230Z,98204.53
2023-01-19T20:21:36.155Z,98210.41
2023-01-19T20:24:10.491Z,98204.38
2023-01-19T20:26:43.044Z,98200.09
2023-01-19T20:29:11.043Z,98166.59
2023-01-19T20:31:49.552Z,98208.66
2023-01-19T20:34:19.560Z,98200.19
2023-01-19T20:36:51.179Z,98200.50
2023-01-19T20:39:19.812Z,98201.88
2023-01-19T20:41:47.452Z,98213.53
2023-01-19T20:44:22.635Z,98189.19
2023-01-19T20:46:50.278Z,98217.88
2023-01-19T20:49:17.350Z,98210.22
2023-01-19T20:51:46.639Z,98211.03
2023-01-19T20:54:16.269Z,98205.41
2023-01-19T20:56:43.084Z,98225.69
2023-01-19T20:59:11.167Z,98215.47
2023-01-19T21:01:39.129Z,98229.91
2023-01-19T21:04:06.611Z,98224.97
2023-01-19T21:06:33.446Z,98220.66
2023-01-19T21:09:00.290Z,98235.84
2023-01-19T21:11:27.604Z,98220.66
2023-01-19T21:13:57.222Z,98243.63
2023-01-19T21:16:26.062Z,98240.22
2023-01-19T21:18:53.105Z,98232.69
2023-01-19T21:21:29.816Z,98253.00
2023-01-19T21:23:59.908Z,98248.75
2023-01-19T21:26:29.571Z,98254.72
2023-01-19T21:29:01.026Z,98258.94
2023-01-19T21:31:28.653Z,98237.13
2023-01-19T21:33:58.704Z,98259.78
2023-01-19T21:36:26.271Z,98242.19
2023-01-19T21:38:55.370Z,98240.59
2023-01-19T21:41:22.240Z,98253.06
2023-01-19T21:43:49.035Z,98256.63
2023-01-19T21:46:22.057Z,98244.97
2023-01-19T21:48:48.951Z,98265.16
2023-01-19T21:51:16.095Z,98245.81
2023-01-19T21:53:43.031Z,98266.13
2023-01-19T21:56:10.943Z,98258.59
2023-01-19T21:58:37.829Z,98263.78
2023-01-19T22:01:10.678Z,98258.78
2023-01-19T22:03:37.615Z,98257.06
2023-01-19T22:06:10.747Z,98265.44
2023-01-19T22:08:37.726Z,98241.13
2023-01-19T22:11:10.487Z,98271.53
2023-01-19T22:13:41.404Z,98275.81
2023-01-19T22:16:16.201Z,98253.22
2023-01-19T22:18:46.525Z,98265.72
2023-01-19T22:21:16.878Z,98278.56
2023-01-19T22:23:47.402Z,98275.19
2023-01-19T22:26:14.159Z,98280.34
2023-01-19T22:28:40.954Z,98287.94
2023-01-19T22:31:17.113Z,98280.34
2023-01-19T22:33:45.005Z,98285.56
2023-01-19T22:36:23.112Z,98281.31
2023-01-19T22:38:58.821Z,98274.50
2023-01-19T22:41:31.265Z,98278.00
2023-01-19T22:44:01.129Z,98285.75
2023-01-19T22:46:31.146Z,98289.88
2023-01-19T22:48:58.707Z,98265.66
2023-01-19T22:51:28.859Z,98284.97
2023-01-19T22:53:55.788Z,98277.50
2023-01-19T22:56:25.759Z,98285.88
2023-01-19T22:58:53.749Z,98285.03
2023-01-19T23:01:26.792Z,98270.97
2023-01-19T23:03:54.865Z,98286.03
2023-01-19T23:06:24.890Z,98280.28
2023-01-19T23:08:53.829Z,98271.22
2023-01-19T23:11:27.629Z,98292.09
2023-01-19T23:13:54.615Z,98282.13
2023-01-19T23:16:22.125Z,98270.31
2023-01-19T23:18:56.674Z,98277.94
2023-01-19T23:21:26.479Z,98299.78
2023-01-19T23:24:01.874Z,98293.00
2023-01-19T23:26:30.786Z,98293.03
2023-01-19T23:29:02.026Z,98296.47
2023-01-19T23:31:32.368Z,98303.19
2023-01-19T23:34:02.747Z,98293.06
2023-01-19T23:36:32.476Z,98298.09
2023-01-19T23:39:03.162Z,98304.09
2023-01-19T23:41:34.366Z,98292.34
2023-01-19T23:44:01.913Z,98310.97
2023-01-19T23:46:29.807Z,98308.59
2023-01-19T23:48:56.797Z,98319.53
2023-01-19T23:51:27.964Z,98307.78
2023-01-19T23:53:56.254Z,98311.94
2023-01-19T23:56:33.300Z,98322.88
2023-01-19T23:59:05.964Z,98321.47
